Terminal Aerodrome Forecast
Issued by NWS

Home | Current Version | Previous Version | Graphics & Text | Print | Product List | Glossary On
Versions: 1 2 3 4 5 6 7 8 9 10 11 12 13 14 15 16 17 18 19 20 21 22 23 24
000
FTUS43 KBIS 311720
TAFDIK
TAF
KDIK 311720Z 3118/0118 13014KT P6SM OVC025
      TEMPO 3118/3119 OVC018
     FM312100 15015KT P6SM BKN035
     FM010400 15013KT P6SM SCT008 BKN080
     FM010800 16011KT P6SM SCT015 BKN040=

USA.gov is the U.S. government's official web portal to all federal, state and local government web resources and services.